Time;durP1;ratioP1;P1;durP2;ratioP2;P2;SDS_P1;SDS_P2;PMS_P1;PMS_P2;Temp;Humidity;BMP_temperature;BMP_pressure;BME280_temperature;BME280_humidity;BME280_pressure;Samples;Min_cycle;Max_cycle;Signal;HPM_P1;HPM_P2
2023/07/22 00:00:17;;;;;;;;;;;18.50;45.60;;;17.55;47.08;100712.22;12255605;19;19911;-89
2023/07/22 00:04:21;;;;;;;;;;;18.40;45.30;;;17.59;47.05;100729.50;12254134;19;19931;-89
2023/07/22 00:08:23;;;;;;;;;;;18.40;45.30;;;17.17;46.76;100660.88;12255498;19;20008;-89
2023/07/22 00:12:25;;;;;;;;;;;18.40;45.50;;;17.40;46.93;100704.63;12255557;19;19947;-90
2023/07/22 00:16:29;;;;;;;;;;;18.40;45.40;;;17.34;46.84;100693.78;12253553;19;19940;-90
2023/07/22 00:20:30;;;;;;;;;;;18.30;45.30;;;17.20;47.03;100672.00;12254932;19;19919;-89
2023/07/22 00:24:32;;;;;;;;;;;18.20;45.20;;;17.33;47.17;100710.56;12252760;19;20366;-89
2023/07/22 00:28:34;;;;;;;;;;;18.20;45.30;;;17.21;46.99;100708.00;12252818;19;19922;-90
2023/07/22 00:32:39;;;;;;;;;;;18.20;45.40;;;16.89;47.09;100662.34;12250348;19;19998;-90
2023/07/22 00:36:40;;;;;;;;;;;18.10;45.50;;;17.15;46.96;100710.31;12248245;19;19907;-90
2023/07/22 00:40:42;;;;;;;;;;;18.10;45.40;;;17.15;47.08;100720.88;12260563;19;20296;-89
2023/07/22 00:44:43;;;;;;;;;;;18.00;45.40;;;17.06;46.97;100714.53;12262940;19;19918;-89
2023/07/22 00:48:45;;;;;;;;;;;18.00;45.50;;;16.96;47.39;100695.16;12263444;19;19931;-89
2023/07/22 00:52:47;;;;;;;;;;;17.90;45.60;;;16.69;47.24;100654.25;12263644;19;19945;-89
2023/07/22 00:56:49;;;;;;;;;;;17.90;45.50;;;16.86;47.39;100681.06;12260207;19;19914;-90
2023/07/22 01:00:52;;;;;;;;;;;17.80;45.70;;;16.93;47.23;100701.53;12262950;19;19921;-89
2023/07/22 01:04:53;;;;;;;;;;;17.80;45.70;;;16.82;47.18;100675.19;12259256;19;19918;-89
2023/07/22 01:08:56;;;;;;;;;;;17.70;45.80;;;16.90;47.58;100699.13;12260209;19;19979;-89
2023/07/22 01:12:58;;;;;;;;;;;17.80;46.00;;;16.88;47.50;100695.81;12260076;19;19967;-89
2023/07/22 01:17:05;;;;;;;;;;;17.80;46.10;;;16.95;47.43;100712.78;12252933;19;19918;-89
2023/07/22 01:21:07;;;;;;;;;;;17.80;46.20;;;16.74;47.40;100664.41;12251560;19;20271;-89
2023/07/22 01:25:08;;;;;;;;;;;17.90;46.30;;;16.95;47.49;100688.19;12255950;19;19931;-89
2023/07/22 01:29:10;;;;;;;;;;;17.90;46.30;;;16.96;47.62;100685.44;12255228;19;19918;-89
2023/07/22 01:33:12;;;;;;;;;;;18.00;46.50;;;16.90;47.59;100674.56;12256598;19;19926;-89
2023/07/22 01:37:13;;;;;;;;;;;18.00;46.50;;;17.16;47.76;100706.69;12253223;19;19970;-89
2023/07/22 01:41:15;;;;;;;;;;;18.10;46.70;;;17.14;47.67;100688.34;12258836;19;19919;-89
2023/07/22 01:45:16;;;;;;;;;;;18.10;46.60;;;17.17;47.69;100703.91;12254323;19;20345;-89
2023/07/22 01:49:18;;;;;;;;;;;18.10;46.70;;;17.12;47.91;100694.72;12253943;19;20329;-89
2023/07/22 01:53:20;;;;;;;;;;;18.10;46.70;;;17.17;47.86;100703.09;12257376;19;20250;-89
2023/07/22 01:57:22;;;;;;;;;;;18.10;46.70;;;17.22;47.92;100709.66;12251877;19;20230;-89
2023/07/22 02:01:24;;;;;;;;;;;18.20;46.80;;;17.21;47.87;100708.00;12257475;19;19925;-89
2023/07/22 02:05:27;;;;;;;;;;;18.20;46.90;;;17.07;48.01;100675.81;12254883;19;19975;-88
2023/07/22 02:09:28;;;;;;;;;;;18.20;47.00;;;17.03;48.21;100669.94;12256563;19;19911;-89
2023/07/22 02:13:31;;;;;;;;;;;18.30;47.00;;;17.20;48.06;100708.97;12255399;19;19923;-89
2023/07/22 02:17:33;;;;;;;;;;;18.30;47.00;;;17.18;48.18;100705.59;12252299;19;20337;-89
2023/07/22 02:21:35;;;;;;;;;;;18.30;47.00;;;17.23;48.23;100719.25;12255638;19;19929;-89
2023/07/22 02:25:37;;;;;;;;;;;18.30;47.20;;;17.25;48.11;100734.94;12253914;19;19934;-89
2023/07/22 02:29:39;;;;;;;;;;;18.30;47.10;;;17.33;48.20;100744.88;12254428;19;19963;-89
2023/07/22 02:33:40;;;;;;;;;;;18.30;47.20;;;17.31;48.16;100747.66;12256072;19;19982;-89
2023/07/22 02:37:42;;;;;;;;;;;18.30;47.30;;;17.31;48.14;100746.78;12249796;19;19996;-89
2023/07/22 02:41:44;;;;;;;;;;;18.30;47.30;;;17.10;48.45;100723.88;12254486;19;20428;-88
2023/07/22 02:45:45;;;;;;;;;;;18.30;47.40;;;17.20;48.46;100748.56;12250683;19;20334;-89
2023/07/22 02:49:47;;;;;;;;;;;18.30;47.40;;;17.00;48.36;100717.69;12252812;19;19923;-89
2023/07/22 02:53:49;;;;;;;;;;;18.30;47.30;;;17.25;48.27;100769.25;12254206;19;20259;-89
2023/07/22 02:57:50;;;;;;;;;;;18.30;47.20;;;17.20;48.57;100763.53;12250982;19;19910;-89
2023/07/22 03:01:52;;;;;;;;;;;18.30;47.20;;;17.23;48.60;100769.41;12251692;19;19929;-89
2023/07/22 03:05:54;;;;;;;;;;;18.30;47.40;;;17.18;48.40;100757.56;12252104;19;19919;-89
2023/07/22 03:09:56;;;;;;;;;;;18.30;47.50;;;17.31;48.54;100789.03;12251831;19;19982;-89
2023/07/22 03:13:57;;;;;;;;;;;18.30;47.40;;;17.20;48.42;100764.38;12254630;19;19917;-89
2023/07/22 03:17:59;;;;;;;;;;;18.30;47.40;;;17.20;48.45;100774.94;12244202;19;19942;-89
2023/07/22 03:22:01;;;;;;;;;;;18.30;47.60;;;17.25;48.76;100782.47;12253743;19;19914;-89
2023/07/22 03:26:02;;;;;;;;;;;18.30;47.70;;;17.06;48.69;100759.38;12249760;19;19922;-89
2023/07/22 03:30:07;;;;;;;;;;;18.20;47.60;;;17.23;48.60;100792.34;12247950;19;19978;-89
2023/07/22 03:34:09;;;;;;;;;;;18.20;47.50;;;17.07;48.64;100776.91;12251194;19;20325;-88
2023/07/22 03:38:10;;;;;;;;;;;18.30;47.60;;;17.12;48.79;100782.66;12246433;19;19995;-88
2023/07/22 03:42:12;;;;;;;;;;;18.30;47.70;;;17.18;48.67;100805.06;12248702;19;19998;-89
2023/07/22 03:46:13;;;;;;;;;;;18.20;47.90;;;17.19;48.82;100804.91;12247874;19;20359;-88
2023/07/22 03:50:15;;;;;;;;;;;18.20;47.80;;;17.22;48.78;100812.59;12248269;19;19922;-88
2023/07/22 03:54:16;;;;;;;;;;;18.30;47.70;;;17.29;48.97;100825.28;12250007;19;19935;-88
2023/07/22 03:58:18;;;;;;;;;;;18.20;47.60;;;17.27;49.09;100808.75;12247925;19;19919;-88
2023/07/22 04:02:19;;;;;;;;;;;18.30;47.70;;;17.28;48.85;100820.97;12247245;19;19923;-89
2023/07/22 04:06:21;;;;;;;;;;;18.30;47.70;;;17.18;48.88;100794.50;12246995;19;19907;-88
2023/07/22 04:10:22;;;;;;;;;;;18.30;48.10;;;17.37;48.88;100822.88;12246985;19;19934;-88
2023/07/22 04:14:24;;;;;;;;;;;18.30;47.70;;;17.39;48.92;100840.25;12246560;19;20594;-89
2023/07/22 04:18:26;;;;;;;;;;;18.40;47.80;;;17.38;48.86;100835.09;12249443;19;19919;-88
2023/07/22 04:22:28;;;;;;;;;;;18.40;47.80;;;17.35;49.17;100822.16;12248620;19;19903;-88
2023/07/22 04:26:30;;;;;;;;;;;18.40;47.70;;;17.41;49.03;100834.84;12248703;19;19939;-88
2023/07/22 04:30:32;;;;;;;;;;;18.40;47.80;;;17.42;49.05;100842.63;12246444;19;19927;-88
2023/07/22 04:34:34;;;;;;;;;;;18.40;47.90;;;17.42;49.07;100844.44;12249041;19;19923;-89
2023/07/22 04:38:36;;;;;;;;;;;18.50;48.00;;;17.45;48.99;100846.84;12245058;19;20320;-89
2023/07/22 04:42:37;;;;;;;;;;;18.50;48.00;;;17.48;49.20;100841.28;12247783;19;19930;-89
2023/07/22 04:46:40;;;;;;;;;;;18.50;47.90;;;17.46;49.16;100840.56;12245989;19;19938;-89
2023/07/22 04:50:44;;;;;;;;;;;18.50;47.90;;;17.35;49.26;100822.16;12247074;19;19915;-88
2023/07/22 04:54:47;;;;;;;;;;;18.60;48.00;;;17.58;49.25;100855.41;12246073;19;19922;-88
2023/07/22 04:58:49;;;;;;;;;;;18.60;48.10;;;17.58;49.14;100854.56;12250531;19;19919;-88
2023/07/22 05:02:52;;;;;;;;;;;18.60;48.00;;;17.65;49.36;100861.03;12251204;19;19918;-88
2023/07/22 05:06:54;;;;;;;;;;;18.70;48.10;;;17.71;49.20;100868.44;12248346;19;19929;-88
2023/07/22 05:10:56;;;;;;;;;;;18.70;48.10;;;17.73;49.25;100869.16;12245596;19;19917;-88
2023/07/22 05:14:57;;;;;;;;;;;18.70;48.00;;;17.61;49.33;100841.13;12244848;19;19923;-88
2023/07/22 05:18:59;;;;;;;;;;;18.80;48.10;;;17.83;49.41;100874.53;12241635;19;19925;-89
2023/07/22 05:23:00;;;;;;;;;;;18.90;48.10;;;17.81;49.33;100873.81;12246668;19;20336;-87
2023/07/22 05:27:02;;;;;;;;;;;18.90;48.10;;;17.67;49.25;100844.09;12253701;19;19928;-88
2023/07/22 05:31:04;;;;;;;;;;;18.90;48.10;;;17.91;49.46;100891.44;12255852;19;20350;-88
2023/07/22 05:35:06;;;;;;;;;;;18.90;48.10;;;17.86;49.38;100871.63;12252861;19;19928;-88
2023/07/22 05:39:08;;;;;;;;;;;19.00;48.40;;;17.88;49.47;100869.72;12260059;19;19919;-87
2023/07/22 05:43:09;;;;;;;;;;;19.00;48.20;;;17.82;49.41;100855.22;12259227;19;19936;-90
2023/07/22 05:47:10;;;;;;;;;;;19.00;48.50;;;17.99;49.63;100882.88;12255041;19;20308;-88
2023/07/22 05:51:12;;;;;;;;;;;19.10;48.40;;;18.16;49.65;100896.47;12256000;19;19919;-89
2023/07/22 05:55:13;;;;;;;;;;;19.10;48.70;;;18.10;49.50;100893.34;12253766;19;20007;-90
2023/07/22 05:59:15;;;;;;;;;;;19.20;48.60;;;18.26;49.65;100905.28;12256812;19;19911;-88
2023/07/22 06:03:17;;;;;;;;;;;19.30;48.70;;;18.42;49.86;100912.75;12252491;19;19907;-87
2023/07/22 06:07:18;;;;;;;;;;;19.40;48.70;;;18.47;49.92;100894.66;12250041;19;19924;-89
2023/07/22 06:11:21;;;;;;;;;;;19.50;48.90;;;18.58;49.71;100906.03;12246005;19;19919;-89
2023/07/22 06:15:23;;;;;;;;;;;19.60;49.00;;;18.67;49.62;100922.91;12248467;19;19923;-88
2023/07/22 06:19:24;;;;;;;;;;;19.70;48.80;;;18.67;49.91;100914.97;12252621;19;19935;-88
2023/07/22 06:23:26;;;;;;;;;;;19.80;48.70;;;18.73;49.80;100921.53;12253090;19;19923;-85
2023/07/22 06:27:28;;;;;;;;;;;19.80;49.00;;;18.78;49.86;100916.72;12247633;19;20254;-87
2023/07/22 06:31:30;;;;;;;;;;;19.90;48.70;;;18.77;49.76;100913.22;12249836;19;19979;-86
2023/07/22 06:35:32;;;;;;;;;;;19.90;48.60;;;18.75;49.95;100906.41;12245825;19;19942;-86
2023/07/22 06:39:33;;;;;;;;;;;20.00;48.70;;;18.90;49.92;100917.44;12252333;19;20321;-86
2023/07/22 06:43:35;;;;;;;;;;;20.10;48.70;;;18.84;49.87;100908.22;12251455;19;20275;-86
2023/07/22 06:47:37;;;;;;;;;;;20.10;48.60;;;18.85;50.12;100898.47;12245929;19;19926;-86
2023/07/22 06:51:38;;;;;;;;;;;20.10;48.40;;;19.05;49.88;100929.34;12249081;19;19907;-85
2023/07/22 06:55:40;;;;;;;;;;;20.20;48.60;;;18.92;50.03;100899.63;12251052;19;19918;-86
2023/07/22 06:59:41;;;;;;;;;;;20.20;48.70;;;19.11;49.83;100920.03;12251573;19;19917;-86
2023/07/22 07:03:42;;;;;;;;;;;20.30;48.60;;;19.31;49.80;100942.94;12251563;19;19907;-85
2023/07/22 07:07:44;;;;;;;;;;;20.40;48.80;;;19.41;49.97;100946.41;12247666;19;20324;-85
2023/07/22 07:11:45;;;;;;;;;;;20.50;48.60;;;19.50;50.12;100946.59;12246943;19;19915;-85
2023/07/22 07:15:50;;;;;;;;;;;20.50;48.40;;;19.60;49.92;100952.72;12250003;19;19943;-85
2023/07/22 07:19:51;;;;;;;;;;;20.60;48.60;;;19.64;50.00;100951.50;12251491;19;19915;-85
2023/07/22 07:23:53;;;;;;;;;;;20.70;48.30;;;19.74;50.18;100949.72;12249951;19;19927;-85
2023/07/22 07:27:55;;;;;;;;;;;20.80;48.10;;;19.66;49.83;100936.34;12247984;19;19923;-86
2023/07/22 07:31:56;;;;;;;;;;;20.80;48.00;;;19.79;50.11;100950.13;12247640;19;19930;-85
2023/07/22 07:35:57;;;;;;;;;;;20.90;48.00;;;19.91;49.97;100955.31;12248688;19;19915;-84
2023/07/22 07:39:59;;;;;;;;;;;20.90;48.10;;;19.94;49.77;100952.38;12249383;19;19919;-84
2023/07/22 07:44:01;;;;;;;;;;;21.10;47.90;;;19.82;50.04;100925.16;12250996;19;19944;-84
2023/07/22 07:48:03;;;;;;;;;;;21.10;48.00;;;20.00;49.69;100949.16;12245316;19;19907;-84
2023/07/22 07:52:05;;;;;;;;;;;21.20;47.70;;;20.11;50.13;100960.44;12247948;19;19934;-85
2023/07/22 07:56:07;;;;;;;;;;;21.30;47.70;;;20.10;49.98;100945.50;12248395;19;19939;-84
2023/07/22 08:00:09;;;;;;;;;;;21.30;47.60;;;20.39;49.87;100975.63;12245773;19;19999;-84
2023/07/22 08:04:11;;;;;;;;;;;21.50;47.70;;;20.45;50.05;100964.47;12250552;19;19922;-84
2023/07/22 08:08:12;;;;;;;;;;;21.60;47.60;;;20.48;49.96;100956.22;12237208;19;20333;-83
2023/07/22 08:12:14;;;;;;;;;;;21.70;47.20;;;20.66;49.92;100981.06;12248527;19;19919;-84
2023/07/22 08:16:15;;;;;;;;;;;21.80;47.20;;;20.73;49.55;100979.47;12245913;19;19943;-83
2023/07/22 08:20:17;;;;;;;;;;;21.90;46.90;;;20.77;49.60;100975.56;12247589;19;20356;-88
2023/07/22 08:24:18;;;;;;;;;;;22.00;46.60;;;20.76;49.91;100975.69;12249064;19;19923;-86
2023/07/22 08:28:20;;;;;;;;;;;22.00;46.60;;;20.71;49.76;100956.72;12249268;19;19915;-87
2023/07/22 08:32:21;;;;;;;;;;;22.00;46.60;;;20.98;49.98;100987.78;12245648;19;19919;-87
2023/07/22 08:36:23;;;;;;;;;;;22.10;46.90;;;21.07;49.64;100983.44;12245226;19;19934;-86
2023/07/22 08:40:25;;;;;;;;;;;22.10;46.30;;;21.03;49.85;100972.25;12247631;19;19919;-87
2023/07/22 08:44:28;;;;;;;;;;;22.30;46.80;;;21.19;49.83;100983.06;12246624;19;19919;-85
2023/07/22 08:48:32;;;;;;;;;;;22.40;45.60;;;21.35;49.73;100994.88;12243295;19;19928;-84
2023/07/22 08:52:35;;;;;;;;;;;22.40;46.10;;;21.33;49.71;100987.06;12246942;19;19915;-84
2023/07/22 08:56:37;;;;;;;;;;;22.50;46.00;;;21.42;49.64;101004.81;12239221;19;19925;-83
2023/07/22 09:00:39;;;;;;;;;;;22.60;45.90;;;21.51;49.44;101008.38;12251035;19;20003;-84
2023/07/22 09:04:42;;;;;;;;;;;22.60;45.80;;;21.54;49.59;101008.06;12258809;19;19919;-84
2023/07/22 09:08:44;;;;;;;;;;;22.70;45.60;;;21.52;49.54;100998.56;12256824;19;19923;-84
2023/07/22 09:12:45;;;;;;;;;;;22.70;45.80;;;21.61;49.59;101001.19;12257251;19;19923;-85
2023/07/22 09:16:47;;;;;;;;;;;22.80;45.50;;;21.71;49.48;101010.91;12252896;19;20253;-85
2023/07/22 09:20:49;;;;;;;;;;;22.80;44.80;;;21.63;49.42;100987.75;12259596;19;19949;-85
2023/07/22 09:24:52;;;;;;;;;;;22.80;45.10;;;21.73;48.90;101009.78;12257094;19;19915;-84
2023/07/22 09:28:56;;;;;;;;;;;22.90;45.00;;;21.75;49.19;101002.50;12255679;19;19921;-84
2023/07/22 09:33:01;;;;;;;;;;;22.90;45.20;;;21.95;49.08;101021.78;12256063;19;20278;-84
2023/07/22 09:37:03;;;;;;;;;;;23.00;45.00;;;22.02;49.03;101017.53;12253212;19;19917;-84
2023/07/22 09:41:05;;;;;;;;;;;23.10;45.00;;;21.86;48.87;100988.13;12257309;19;20336;-83
2023/07/22 09:45:07;;;;;;;;;;;23.10;45.20;;;21.81;48.71;100971.81;12253985;19;20029;-83
2023/07/22 09:49:09;;;;;;;;;;;23.20;45.10;;;21.98;48.58;100992.25;12254489;19;19923;-85
2023/07/22 09:53:15;;;;;;;;;;;23.20;45.00;;;22.03;48.58;100992.59;12257207;19;19941;-84
2023/07/22 09:57:17;;;;;;;;;;;23.20;45.10;;;21.83;48.92;100968.00;12253564;19;19935;-85
2023/07/22 10:01:22;;;;;;;;;;;23.20;45.10;;;22.14;48.64;100999.53;12255686;19;20019;-84
2023/07/22 10:05:25;;;;;;;;;;;23.30;44.90;;;22.31;48.61;101025.31;12255870;19;20333;-85
2023/07/22 10:09:28;;;;;;;;;;;23.30;43.70;;;22.33;48.79;101014.50;12251206;19;19922;-83
2023/07/22 10:13:29;;;;;;;;;;;23.40;44.40;;;22.40;48.68;101007.59;12253284;19;19919;-83
2023/07/22 10:17:31;;;;;;;;;;;23.50;45.00;;;22.29;48.37;100989.22;12248517;19;19915;-83
2023/07/22 10:21:33;;;;;;;;;;;23.60;44.40;;;22.54;48.57;101012.34;12252279;19;20590;-83
2023/07/22 10:25:35;;;;;;;;;;;23.70;44.30;;;22.65;48.63;101019.22;12249950;19;19923;-83
2023/07/22 10:29:37;;;;;;;;;;;23.70;43.00;;;22.74;48.22;101026.31;12251343;19;20401;-84
2023/07/22 10:33:38;;;;;;;;;;;23.80;44.00;;;22.74;48.30;101009.50;12251710;19;20240;-84
2023/07/22 10:37:41;;;;;;;;;;;23.90;43.90;;;22.86;48.03;101018.88;12248327;19;19919;-84
2023/07/22 10:41:46;;;;;;;;;;;23.90;44.10;;;22.88;48.49;101011.56;12252618;19;19929;-89
2023/07/22 10:45:53;;;;;;;;;;;24.00;44.40;;;23.00;48.18;101012.16;12249987;19;19915;-88
2023/07/22 10:50:04;;;;;;;;;;;24.10;44.50;;;23.21;48.07;101016.25;12250337;19;20004;-86
2023/07/22 10:54:14;;;;;;;;;;;24.20;43.90;;;23.38;48.40;101009.97;12255359;19;19935;-87
2023/07/22 10:58:15;;;;;;;;;;;24.40;43.60;;;23.52;48.28;101011.19;12248314;19;19942;-87
2023/07/22 11:02:27;;;;;;;;;;;24.60;43.40;;;23.62;47.72;101011.88;12256454;19;20238;-86
2023/07/22 11:06:29;;;;;;;;;;;24.70;44.10;;;23.66;47.79;101013.25;12250637;19;19919;-86
2023/07/22 11:10:31;;;;;;;;;;;24.70;43.70;;;23.60;47.52;100998.72;12253345;19;19922;-88
2023/07/22 11:14:44;;;;;;;;;;;24.90;43.00;;;23.58;47.75;100990.06;12251116;19;20352;-87
2023/07/22 11:18:46;;;;;;;;;;;24.90;43.40;;;23.76;47.93;101016.63;12253796;19;19939;-86
2023/07/22 11:22:50;;;;;;;;;;;24.90;42.80;;;23.71;47.49;101012.72;12251749;19;20270;-87
2023/07/22 11:26:52;;;;;;;;;;;24.90;42.50;;;23.67;47.57;101009.56;12248167;19;20334;-89
2023/07/22 11:30:54;;;;;;;;;;;24.80;43.20;;;23.63;47.92;100993.06;12248723;19;20025;-90
2023/07/22 11:34:55;;;;;;;;;;;24.80;43.30;;;23.83;47.70;101006.97;12245843;19;19918;-87
2023/07/22 11:39:12;;;;;;;;;;;24.90;42.60;;;23.93;47.25;101006.81;12249522;19;20437;-89
2023/07/22 11:43:14;;;;;;;;;;;24.90;42.50;;;23.96;47.48;100994.97;12250734;19;19933;-88
2023/07/22 11:47:15;;;;;;;;;;;25.10;43.00;;;24.16;47.10;101006.16;12243381;19;19970;-89
2023/07/22 11:51:21;;;;;;;;;;;25.20;43.30;;;24.29;47.00;100991.31;12243236;19;19915;-88
2023/07/22 11:55:24;;;;;;;;;;;25.30;43.10;;;24.43;46.88;100999.63;12245909;19;19929;-89
2023/07/22 11:59:48;;;;;;;;;;;25.40;42.90;;;24.37;47.24;100962.94;12251482;19;19919;-88
2023/07/22 12:03:55;;;;;;;;;;;25.60;42.90;;;24.55;47.32;100966.28;12251102;19;19922;-88
2023/07/22 12:07:57;;;;;;;;;;;25.70;42.80;;;24.82;46.73;100980.25;12244143;19;19927;-88
2023/07/22 12:11:59;;;;;;;;;;;25.90;42.30;;;24.96;46.56;100984.88;12247616;19;19963;-87
2023/07/22 12:16:05;;;;;;;;;;;26.00;40.80;;;25.02;46.91;100976.16;12247991;19;19930;-88
2023/07/22 12:20:08;;;;;;;;;;;26.10;42.20;;;25.20;46.71;100957.22;12251854;19;20029;-88
2023/07/22 12:24:13;;;;;;;;;;;26.20;41.80;;;25.07;46.46;100944.41;12248320;19;19948;-89
2023/07/22 12:28:15;;;;;;;;;;;26.40;40.40;;;25.29;46.35;100953.50;12249743;19;19910;-88
2023/07/22 12:32:17;;;;;;;;;;;26.50;40.60;;;25.50;46.47;100976.13;12251668;19;20325;-88
2023/07/22 12:36:18;;;;;;;;;;;26.60;41.80;;;25.49;46.24;100977.97;12259771;19;19925;-88
2023/07/22 12:40:20;;;;;;;;;;;26.60;41.50;;;25.35;45.96;100949.28;12260772;19;20468;-90
2023/07/22 12:44:22;;;;;;;;;;;26.60;39.90;;;25.37;46.03;100955.28;12262848;19;19935;-89
2023/07/22 12:48:24;;;;;;;;;;;26.60;40.60;;;25.24;46.24;100931.81;12258775;19;20238;-89
2023/07/22 12:52:25;;;;;;;;;;;26.50;41.10;;;25.43;46.11;100959.09;12262070;19;19951;-90
2023/07/22 12:56:27;;;;;;;;;;;26.50;41.00;;;25.48;45.77;100962.91;12257751;19;19974;-89
2023/07/22 13:00:28;;;;;;;;;;;26.60;40.70;;;25.39;45.70;100955.97;12261965;19;20265;-89
2023/07/22 13:04:29;;;;;;;;;;;26.50;41.00;;;25.48;45.91;100980.81;12256058;19;19922;-89
2023/07/22 13:08:31;;;;;;;;;;;26.50;40.70;;;25.42;45.34;100973.50;12257528;19;19921;-89
2023/07/22 13:12:32;;;;;;;;;;;26.50;40.70;;;25.27;45.73;100952.84;12259164;19;19939;-90
2023/07/22 13:16:33;;;;;;;;;;;26.50;40.70;;;25.41;45.14;100963.78;12256970;19;19929;-91
2023/07/22 13:20:35;;;;;;;;;;;26.50;41.40;;;25.23;45.45;100945.38;12255648;19;19948;-90
2023/07/22 13:24:37;;;;;;;;;;;26.50;40.60;;;25.36;45.30;100951.78;12255916;19;19910;-89
2023/07/22 13:28:38;;;;;;;;;;;26.30;41.30;;;25.44;44.94;100960.75;12254841;19;20379;-90
2023/07/22 13:32:40;;;;;;;;;;;26.50;41.30;;;25.48;44.91;100954.06;12255422;19;20509;-89
2023/07/22 13:36:42;;;;;;;;;;;26.50;41.40;;;25.50;44.87;100957.41;12253639;19;19926;-90
2023/07/22 13:40:44;;;;;;;;;;;26.50;41.60;;;25.49;45.21;100958.41;12254672;19;19927;-91
2023/07/22 13:44:45;;;;;;;;;;;26.50;41.60;;;25.45;44.76;100960.59;12253815;19;19922;-90
2023/07/22 13:48:50;;;;;;;;;;;26.50;41.40;;;25.37;44.73;100950.78;12251048;19;20225;-90
2023/07/22 13:52:52;;;;;;;;;;;26.50;41.70;;;25.26;45.04;100929.78;12255015;19;19923;-91
2023/07/22 13:56:53;;;;;;;;;;;26.40;41.50;;;25.41;44.52;100961.97;12251256;19;19923;-91
2023/07/22 14:00:54;;;;;;;;;;;26.40;41.50;;;25.44;44.96;100966.09;12255126;19;19949;-91
2023/07/22 14:04:56;;;;;;;;;;;26.30;41.30;;;25.47;44.45;100963.94;12257734;19;19932;-90
2023/07/22 14:08:57;;;;;;;;;;;26.30;41.30;;;25.12;44.42;100909.97;12254523;19;19918;-90
2023/07/22 14:12:58;;;;;;;;;;;26.30;41.20;;;25.47;44.72;100953.25;12255543;19;19918;-89
2023/07/22 14:17:00;;;;;;;;;;;26.30;40.80;;;25.33;44.49;100941.47;12249753;19;19935;-88
2023/07/22 14:21:04;;;;;;;;;;;26.30;41.20;;;25.22;44.64;100923.16;12257180;19;19914;-90
2023/07/22 14:25:06;;;;;;;;;;;26.30;41.00;;;25.38;44.49;100939.09;12253838;19;19926;-90
2023/07/22 14:29:07;;;;;;;;;;;26.30;41.30;;;25.36;44.24;100921.56;12255805;19;20344;-90
2023/07/22 14:33:09;;;;;;;;;;;26.40;41.40;;;25.56;44.63;100941.47;12257410;19;19995;-90
2023/07/22 14:37:10;;;;;;;;;;;26.40;41.30;;;25.57;44.11;100929.78;12253253;19;19911;-89
2023/07/22 14:41:12;;;;;;;;;;;26.50;41.20;;;25.62;44.19;100923.88;12256697;19;19921;-90
2023/07/22 14:45:14;;;;;;;;;;;26.50;39.60;;;25.64;44.03;100927.22;12251306;19;19943;-90
2023/07/22 14:49:15;;;;;;;;;;;26.60;40.90;;;25.76;44.46;100923.13;12252101;19;19911;-90
2023/07/22 14:53:17;;;;;;;;;;;26.60;39.00;;;25.74;44.40;100935.00;12253498;19;19935;-90
2023/07/22 14:57:22;;;;;;;;;;;26.70;41.00;;;25.72;44.06;100939.69;12248606;19;19922;-91
2023/07/22 15:01:23;;;;;;;;;;;26.60;40.70;;;25.66;44.25;100938.56;12250199;19;19914;-91
2023/07/22 15:05:25;;;;;;;;;;;26.60;40.50;;;25.60;43.76;100932.09;12250786;19;20267;-91
2023/07/22 15:09:26;;;;;;;;;;;26.60;41.00;;;25.55;44.04;100929.13;12251323;19;19928;-92
2023/07/22 15:13:27;;;;;;;;;;;26.50;40.90;;;25.59;43.63;100922.38;12252890;19;20474;-91
2023/07/22 15:17:31;;;;;;;;;;;26.50;40.80;;;25.63;43.76;100938.06;12249707;19;19935;-91
2023/07/22 15:21:33;;;;;;;;;;;26.50;40.80;;;25.60;43.74;100931.25;12252416;19;19915;-91
2023/07/22 15:25:34;;;;;;;;;;;26.50;40.10;;;25.54;43.63;100929.28;12249237;19;19927;-91
2023/07/22 15:30:09;;;;;;;;;;;26.50;39.50;;;25.22;43.77;100884.88;12248282;19;19911;-92
2023/07/22 15:34:49;;;;;;;;;;;26.40;40.90;;;25.47;43.86;100921.16;12244109;19;19919;-92
2023/07/22 15:38:58;;;;;;;;;;;26.30;40.90;;;25.19;43.62;100874.53;12244223;19;19915;-90
2023/07/22 15:42:59;;;;;;;;;;;26.40;41.10;;;25.54;43.78;100927.44;12246899;19;19927;-91
2023/07/22 15:47:01;;;;;;;;;;;26.40;40.60;;;25.60;43.21;100936.63;12244660;19;19925;-90
2023/07/22 15:51:02;;;;;;;;;;;26.40;40.80;;;25.42;43.63;100909.31;12236722;19;19919;-91
2023/07/22 15:55:04;;;;;;;;;;;26.30;40.50;;;25.35;43.34;100888.63;12245538;19;19957;-91
2023/07/22 15:59:06;;;;;;;;;;;26.30;41.00;;;25.57;43.54;100935.13;12246673;19;19918;-91
2023/07/22 16:03:10;;;;;;;;;;;26.30;41.00;;;25.48;43.42;100909.44;12249840;19;19914;-91
2023/07/22 16:07:11;;;;;;;;;;;26.30;41.00;;;25.60;43.67;100910.69;12239872;19;20325;-88
2023/07/22 16:11:13;;;;;;;;;;;26.40;40.90;;;25.44;43.15;100868.03;12236414;19;20044;-91
2023/07/22 16:15:14;;;;;;;;;;;26.40;41.10;;;25.63;43.51;100897.94;12242021;19;19918;-91
2023/07/22 16:19:16;;;;;;;;;;;26.50;40.90;;;25.44;43.51;100862.69;12246462;19;19987;-91
2023/07/22 16:23:17;;;;;;;;;;;26.50;41.00;;;25.72;43.26;100902.25;12245980;19;19938;-91
2023/07/22 16:27:18;;;;;;;;;;;26.60;41.10;;;25.66;43.46;100886.91;12247246;19;19925;-91
2023/07/22 16:31:20;;;;;;;;;;;26.60;40.90;;;25.71;42.91;100896.06;12245588;19;19918;-91
2023/07/22 16:35:21;;;;;;;;;;;26.60;41.00;;;25.76;42.90;100909.75;12245538;19;19926;-91
2023/07/22 16:39:24;;;;;;;;;;;26.60;41.00;;;25.70;43.33;100901.59;12243640;19;19922;-90
2023/07/22 16:43:34;;;;;;;;;;;26.60;41.10;;;25.61;42.98;100885.59;12245220;19;20281;-91
2023/07/22 16:47:35;;;;;;;;;;;26.60;41.00;;;25.81;43.17;100917.19;12243869;19;19911;-90
2023/07/22 16:51:37;;;;;;;;;;;26.60;40.70;;;25.80;42.86;100911.03;12240258;19;20234;-91
2023/07/22 16:55:38;;;;;;;;;;;26.50;40.80;;;25.81;42.92;100906.50;12242841;19;19914;-91
2023/07/22 16:59:40;;;;;;;;;;;26.70;40.60;;;25.79;43.27;100895.16;12246557;19;20361;-91
2023/07/22 17:03:41;;;;;;;;;;;26.60;40.60;;;25.59;43.12;100876.91;12247144;19;19944;-91
2023/07/22 17:07:43;;;;;;;;;;;26.60;40.50;;;25.71;42.89;100895.25;12241896;19;19921;-91
2023/07/22 17:11:44;;;;;;;;;;;26.60;40.80;;;25.53;42.98;100866.13;12243663;19;19994;-90
2023/07/22 17:15:47;;;;;;;;;;;26.60;40.70;;;25.71;42.85;100897.91;12243164;19;19923;-90
2023/07/22 17:19:48;;;;;;;;;;;26.50;40.80;;;25.73;42.73;100898.53;12246730;19;19915;-90
2023/07/22 17:23:50;;;;;;;;;;;26.50;38.90;;;25.66;42.85;100887.75;12258073;19;20357;-90
2023/07/22 17:27:52;;;;;;;;;;;26.50;40.40;;;25.67;42.63;100894.75;12254606;19;19915;-88
2023/07/22 17:31:53;;;;;;;;;;;26.40;40.60;;;25.60;42.42;100886.63;12252460;19;20397;-91
2023/07/22 17:35:55;;;;;;;;;;;26.40;40.50;;;25.53;42.74;100869.63;12254548;19;19923;-90
2023/07/22 17:39:58;;;;;;;;;;;26.30;40.50;;;25.41;42.75;100857.69;12257663;19;19918;-90
2023/07/22 17:44:00;;;;;;;;;;;26.30;40.60;;;25.31;42.61;100847.22;12256158;19;19919;-90
2023/07/22 17:48:02;;;;;;;;;;;26.30;40.40;;;25.50;42.45;100883.34;12246726;19;19945;-91
2023/07/22 17:52:04;;;;;;;;;;;26.20;40.50;;;25.46;42.52;100881.19;12247281;19;19936;-89
2023/07/22 17:56:06;;;;;;;;;;;26.30;40.60;;;25.29;42.55;100856.44;12248792;19;19919;-91
2023/07/22 18:00:08;;;;;;;;;;;26.20;40.70;;;25.38;42.34;100872.25;12253784;19;19947;-91
2023/07/22 18:04:12;;;;;;;;;;;26.20;40.60;;;25.36;42.70;100870.75;12247350;19;19914;-90
2023/07/22 18:08:14;;;;;;;;;;;26.10;40.70;;;25.24;42.84;100850.78;12248271;19;19931;-90